Terminal Aerodrome Forecast
Issued by NWS Quad Cities IA IL

Home | Current Version | Previous Version | Text Only | Print | Product List | Glossary On
Versions: 1 2 3 4 5 6 7 8 9 10 11 12 13 14 15 16
000
FTUS43 KDVN 231729
TAFMLI
TAF
KMLI 231729Z 2318/2418 14009KT P6SM BKN200
     FM240100 15005KT P6SM BKN250
     FM240900 16004KT 5SM BR BKN250
     FM241500 23010KT P6SM BKN150=

USA.gov is the U.S. government's official web portal to all federal, state and local government web resources and services.